sensor_id;sensor_type;location;lat;lon;timestamp;P1;durP1;ratioP1;P2;durP2;ratioP2
67965;SDS011;54749;47.850;9.002;2023-05-07T00:00:03;10.80;;;5.77;;
67965;SDS011;54749;47.850;9.002;2023-05-07T00:02:55;12.23;;;6.07;;
67965;SDS011;54749;47.850;9.002;2023-05-07T00:05:22;11.38;;;6.25;;
67965;SDS011;54749;47.850;9.002;2023-05-07T00:07:49;9.93;;;6.10;;
67965;SDS011;54749;47.850;9.002;2023-05-07T00:10:17;12.88;;;5.65;;
67965;SDS011;54749;47.850;9.002;2023-05-07T00:12:44;14.70;;;6.20;;
67965;SDS011;54749;47.850;9.002;2023-05-07T00:15:11;12.38;;;6.32;;
67965;SDS011;54749;47.850;9.002;2023-05-07T00:17:39;11.88;;;5.93;;
67965;SDS011;54749;47.850;9.002;2023-05-07T00:20:06;12.88;;;6.00;;
67965;SDS011;54749;47.850;9.002;2023-05-07T00:22:34;9.65;;;4.65;;
67965;SDS011;54749;47.850;9.002;2023-05-07T00:25:01;8.67;;;4.67;;
67965;SDS011;54749;47.850;9.002;2023-05-07T00:27:28;8.75;;;4.80;;
67965;SDS011;54749;47.850;9.002;2023-05-07T00:29:56;8.77;;;4.47;;
67965;SDS011;54749;47.850;9.002;2023-05-07T00:32:23;8.48;;;4.35;;
67965;SDS011;54749;47.850;9.002;2023-05-07T00:34:50;7.53;;;4.05;;
67965;SDS011;54749;47.850;9.002;2023-05-07T00:37:17;8.27;;;4.13;;
67965;SDS011;54749;47.850;9.002;2023-05-07T00:39:45;8.23;;;4.25;;
67965;SDS011;54749;47.850;9.002;2023-05-07T00:42:12;8.07;;;4.43;;
67965;SDS011;54749;47.850;9.002;2023-05-07T00:44:39;8.18;;;4.30;;
67965;SDS011;54749;47.850;9.002;2023-05-07T00:47:07;8.85;;;4.32;;
67965;SDS011;54749;47.850;9.002;2023-05-07T00:49:38;10.50;;;4.93;;
67965;SDS011;54749;47.850;9.002;2023-05-07T00:52:08;10.45;;;4.55;;
67965;SDS011;54749;47.850;9.002;2023-05-07T00:54:38;7.18;;;4.18;;
67965;SDS011;54749;47.850;9.002;2023-05-07T00:57:06;9.23;;;5.15;;
67965;SDS011;54749;47.850;9.002;2023-05-07T00:59:35;11.23;;;4.80;;
67965;SDS011;54749;47.850;9.002;2023-05-07T01:02:02;8.50;;;4.50;;
67965;SDS011;54749;47.850;9.002;2023-05-07T01:04:30;8.18;;;4.57;;
67965;SDS011;54749;47.850;9.002;2023-05-07T01:06:58;11.63;;;5.78;;
67965;SDS011;54749;47.850;9.002;2023-05-07T01:09:27;11.98;;;5.80;;
67965;SDS011;54749;47.850;9.002;2023-05-07T01:11:55;9.95;;;6.00;;
67965;SDS011;54749;47.850;9.002;2023-05-07T01:14:24;12.90;;;5.90;;
67965;SDS011;54749;47.850;9.002;2023-05-07T01:16:52;11.48;;;5.97;;
67965;SDS011;54749;47.850;9.002;2023-05-07T01:19:22;10.55;;;5.97;;
67965;SDS011;54749;47.850;9.002;2023-05-07T01:21:50;11.45;;;6.15;;
67965;SDS011;54749;47.850;9.002;2023-05-07T01:24:20;10.23;;;5.88;;
67965;SDS011;54749;47.850;9.002;2023-05-07T01:26:47;8.77;;;4.90;;
67965;SDS011;54749;47.850;9.002;2023-05-07T01:29:16;10.15;;;4.70;;
67965;SDS011;54749;47.850;9.002;2023-05-07T01:31:44;10.25;;;4.97;;
67965;SDS011;54749;47.850;9.002;2023-05-07T01:34:14;11.98;;;6.68;;
67965;SDS011;54749;47.850;9.002;2023-05-07T01:36:44;11.15;;;4.45;;
67965;SDS011;54749;47.850;9.002;2023-05-07T01:39:13;7.27;;;3.90;;
67965;SDS011;54749;47.850;9.002;2023-05-07T01:41:41;6.85;;;4.10;;
67965;SDS011;54749;47.850;9.002;2023-05-07T01:44:10;7.63;;;4.30;;
67965;SDS011;54749;47.850;9.002;2023-05-07T01:46:40;8.77;;;4.57;;
67965;SDS011;54749;47.850;9.002;2023-05-07T01:49:07;9.32;;;4.38;;
67965;SDS011;54749;47.850;9.002;2023-05-07T01:51:35;7.40;;;4.40;;
67965;SDS011;54749;47.850;9.002;2023-05-07T01:54:02;7.50;;;4.03;;
67965;SDS011;54749;47.850;9.002;2023-05-07T01:56:29;8.85;;;4.32;;
67965;SDS011;54749;47.850;9.002;2023-05-07T01:58:57;7.40;;;3.83;;
67965;SDS011;54749;47.850;9.002;2023-05-07T02:01:24;8.23;;;4.10;;
67965;SDS011;54749;47.850;9.002;2023-05-07T02:03:52;7.30;;;3.53;;
67965;SDS011;54749;47.850;9.002;2023-05-07T02:06:24;9.43;;;5.05;;
67965;SDS011;54749;47.850;9.002;2023-05-07T02:08:55;7.18;;;4.20;;
67965;SDS011;54749;47.850;9.002;2023-05-07T02:11:22;6.75;;;3.58;;
67965;SDS011;54749;47.850;9.002;2023-05-07T02:13:50;7.00;;;3.33;;
67965;SDS011;54749;47.850;9.002;2023-05-07T02:16:17;6.70;;;3.30;;
67965;SDS011;54749;47.850;9.002;2023-05-07T02:18:44;7.60;;;3.67;;
67965;SDS011;54749;47.850;9.002;2023-05-07T02:21:11;6.93;;;3.70;;
67965;SDS011;54749;47.850;9.002;2023-05-07T02:23:38;7.68;;;3.70;;
67965;SDS011;54749;47.850;9.002;2023-05-07T02:26:05;6.00;;;3.33;;
67965;SDS011;54749;47.850;9.002;2023-05-07T02:28:33;6.27;;;3.30;;
67965;SDS011;54749;47.850;9.002;2023-05-07T02:31:04;6.00;;;3.25;;
67965;SDS011;54749;47.850;9.002;2023-05-07T02:33:32;7.93;;;3.60;;
67965;SDS011;54749;47.850;9.002;2023-05-07T02:36:06;7.60;;;3.65;;
67965;SDS011;54749;47.850;9.002;2023-05-07T02:38:49;12.30;;;5.45;;
67965;SDS011;54749;47.850;9.002;2023-05-07T02:41:16;10.73;;;5.07;;
67965;SDS011;54749;47.850;9.002;2023-05-07T02:43:43;11.52;;;5.70;;
67965;SDS011;54749;47.850;9.002;2023-05-07T02:46:11;10.15;;;5.25;;
67965;SDS011;54749;47.850;9.002;2023-05-07T02:48:42;12.35;;;6.10;;
67965;SDS011;54749;47.850;9.002;2023-05-07T02:51:09;9.65;;;5.70;;
67965;SDS011;54749;47.850;9.002;2023-05-07T02:53:39;9.53;;;4.40;;
67965;SDS011;54749;47.850;9.002;2023-05-07T02:56:06;9.45;;;5.07;;
67965;SDS011;54749;47.850;9.002;2023-05-07T02:58:33;10.88;;;4.90;;
67965;SDS011;54749;47.850;9.002;2023-05-07T03:01:02;7.65;;;4.43;;
67965;SDS011;54749;47.850;9.002;2023-05-07T03:03:46;8.50;;;4.40;;
67965;SDS011;54749;47.850;9.002;2023-05-07T03:06:13;12.07;;;6.33;;
67965;SDS011;54749;47.850;9.002;2023-05-07T03:08:40;12.25;;;6.90;;
67965;SDS011;54749;47.850;9.002;2023-05-07T03:11:07;10.32;;;5.25;;
67965;SDS011;54749;47.850;9.002;2023-05-07T03:13:35;11.85;;;5.38;;
67965;SDS011;54749;47.850;9.002;2023-05-07T03:16:02;12.93;;;6.15;;
67965;SDS011;54749;47.850;9.002;2023-05-07T03:18:29;10.00;;;5.07;;
67965;SDS011;54749;47.850;9.002;2023-05-07T03:20:56;8.45;;;4.90;;
67965;SDS011;54749;47.850;9.002;2023-05-07T03:23:24;8.73;;;4.95;;
67965;SDS011;54749;47.850;9.002;2023-05-07T03:25:51;11.00;;;5.05;;
67965;SDS011;54749;47.850;9.002;2023-05-07T03:28:18;10.48;;;5.28;;
67965;SDS011;54749;47.850;9.002;2023-05-07T03:30:51;9.77;;;5.00;;
67965;SDS011;54749;47.850;9.002;2023-05-07T03:33:18;10.65;;;5.32;;
67965;SDS011;54749;47.850;9.002;2023-05-07T03:35:46;11.07;;;5.75;;
67965;SDS011;54749;47.850;9.002;2023-05-07T03:38:19;11.13;;;6.43;;
67965;SDS011;54749;47.850;9.002;2023-05-07T03:40:46;12.55;;;5.80;;
67965;SDS011;54749;47.850;9.002;2023-05-07T03:43:14;12.87;;;6.80;;
67965;SDS011;54749;47.850;9.002;2023-05-07T03:45:46;9.65;;;5.70;;
67965;SDS011;54749;47.850;9.002;2023-05-07T03:48:20;11.23;;;5.15;;
67965;SDS011;54749;47.850;9.002;2023-05-07T03:50:49;10.13;;;5.10;;
67965;SDS011;54749;47.850;9.002;2023-05-07T03:53:18;11.32;;;4.70;;
67965;SDS011;54749;47.850;9.002;2023-05-07T03:55:45;9.53;;;5.20;;
67965;SDS011;54749;47.850;9.002;2023-05-07T03:58:12;10.25;;;5.32;;
67965;SDS011;54749;47.850;9.002;2023-05-07T04:00:39;11.20;;;5.43;;
67965;SDS011;54749;47.850;9.002;2023-05-07T04:03:21;9.82;;;5.50;;
67965;SDS011;54749;47.850;9.002;2023-05-07T04:05:48;11.93;;;6.10;;
67965;SDS011;54749;47.850;9.002;2023-05-07T04:08:16;9.23;;;5.43;;
67965;SDS011;54749;47.850;9.002;2023-05-07T04:10:48;12.68;;;6.40;;
67965;SDS011;54749;47.850;9.002;2023-05-07T04:13:23;9.20;;;5.10;;
67965;SDS011;54749;47.850;9.002;2023-05-07T04:15:51;10.05;;;5.20;;
67965;SDS011;54749;47.850;9.002;2023-05-07T04:18:19;8.73;;;4.85;;
67965;SDS011;54749;47.850;9.002;2023-05-07T04:20:48;8.90;;;5.03;;
67965;SDS011;54749;47.850;9.002;2023-05-07T04:23:16;10.02;;;5.00;;
67965;SDS011;54749;47.850;9.002;2023-05-07T04:25:44;12.80;;;5.72;;
67965;SDS011;54749;47.850;9.002;2023-05-07T04:28:38;9.20;;;4.63;;
67965;SDS011;54749;47.850;9.002;2023-05-07T04:31:06;9.57;;;4.60;;
67965;SDS011;54749;47.850;9.002;2023-05-07T04:33:36;10.67;;;5.73;;
67965;SDS011;54749;47.850;9.002;2023-05-07T04:36:05;9.73;;;5.38;;
67965;SDS011;54749;47.850;9.002;2023-05-07T04:38:38;9.32;;;5.22;;
67965;SDS011;54749;47.850;9.002;2023-05-07T04:41:05;10.95;;;5.10;;
67965;SDS011;54749;47.850;9.002;2023-05-07T04:43:37;9.05;;;4.88;;
67965;SDS011;54749;47.850;9.002;2023-05-07T04:46:04;8.17;;;4.43;;
67965;SDS011;54749;47.850;9.002;2023-05-07T04:48:32;7.85;;;4.10;;
67965;SDS011;54749;47.850;9.002;2023-05-07T04:51:00;8.50;;;4.60;;
67965;SDS011;54749;47.850;9.002;2023-05-07T04:53:27;8.20;;;4.30;;
67965;SDS011;54749;47.850;9.002;2023-05-07T04:55:56;9.10;;;4.30;;
67965;SDS011;54749;47.850;9.002;2023-05-07T04:58:28;8.10;;;4.43;;
67965;SDS011;54749;47.850;9.002;2023-05-07T05:00:58;7.93;;;4.18;;
67965;SDS011;54749;47.850;9.002;2023-05-07T05:03:28;6.72;;;3.90;;
67965;SDS011;54749;47.850;9.002;2023-05-07T05:05:55;7.95;;;4.55;;
67965;SDS011;54749;47.850;9.002;2023-05-07T05:08:23;7.85;;;4.10;;
67965;SDS011;54749;47.850;9.002;2023-05-07T05:10:50;7.97;;;4.40;;
67965;SDS011;54749;47.850;9.002;2023-05-07T05:13:17;9.70;;;3.83;;
67965;SDS011;54749;47.850;9.002;2023-05-07T05:15:45;6.97;;;3.88;;
67965;SDS011;54749;47.850;9.002;2023-05-07T05:18:13;8.30;;;3.80;;
67965;SDS011;54749;47.850;9.002;2023-05-07T05:20:40;8.13;;;3.88;;
67965;SDS011;54749;47.850;9.002;2023-05-07T05:23:07;6.87;;;3.80;;
67965;SDS011;54749;47.850;9.002;2023-05-07T05:25:35;7.88;;;3.65;;
67965;SDS011;54749;47.850;9.002;2023-05-07T05:28:02;10.35;;;3.78;;
67965;SDS011;54749;47.850;9.002;2023-05-07T05:30:32;7.88;;;4.40;;
67965;SDS011;54749;47.850;9.002;2023-05-07T05:33:01;8.15;;;3.72;;
67965;SDS011;54749;47.850;9.002;2023-05-07T05:35:29;6.83;;;4.10;;
67965;SDS011;54749;47.850;9.002;2023-05-07T05:37:57;9.23;;;3.92;;
67965;SDS011;54749;47.850;9.002;2023-05-07T05:40:24;6.88;;;3.83;;
67965;SDS011;54749;47.850;9.002;2023-05-07T05:42:52;7.38;;;3.80;;
67965;SDS011;54749;47.850;9.002;2023-05-07T05:45:19;6.53;;;3.85;;
67965;SDS011;54749;47.850;9.002;2023-05-07T05:47:47;8.03;;;4.37;;
67965;SDS011;54749;47.850;9.002;2023-05-07T05:50:14;7.32;;;3.97;;
67965;SDS011;54749;47.850;9.002;2023-05-07T05:52:41;6.03;;;3.60;;
67965;SDS011;54749;47.850;9.002;2023-05-07T05:55:09;5.47;;;3.33;;
67965;SDS011;54749;47.850;9.002;2023-05-07T05:57:37;8.57;;;4.18;;
67965;SDS011;54749;47.850;9.002;2023-05-07T06:00:05;8.57;;;4.20;;
67965;SDS011;54749;47.850;9.002;2023-05-07T06:02:44;6.55;;;3.58;;
67965;SDS011;54749;47.850;9.002;2023-05-07T06:05:16;6.93;;;3.88;;
67965;SDS011;54749;47.850;9.002;2023-05-07T06:07:45;7.57;;;4.30;;
67965;SDS011;54749;47.850;9.002;2023-05-07T06:10:12;6.70;;;3.30;;
67965;SDS011;54749;47.850;9.002;2023-05-07T06:12:40;7.83;;;4.00;;
67965;SDS011;54749;47.850;9.002;2023-05-07T06:15:07;6.50;;;3.72;;
67965;SDS011;54749;47.850;9.002;2023-05-07T06:17:35;6.13;;;3.72;;
67965;SDS011;54749;47.850;9.002;2023-05-07T06:20:02;5.50;;;3.00;;
67965;SDS011;54749;47.850;9.002;2023-05-07T06:22:30;5.03;;;2.60;;
67965;SDS011;54749;47.850;9.002;2023-05-07T06:24:57;5.17;;;2.93;;
67965;SDS011;54749;47.850;9.002;2023-05-07T06:27:25;6.55;;;2.90;;
67965;SDS011;54749;47.850;9.002;2023-05-07T06:29:55;5.57;;;3.28;;
67965;SDS011;54749;47.850;9.002;2023-05-07T06:32:22;7.00;;;3.30;;
67965;SDS011;54749;47.850;9.002;2023-05-07T06:34:51;4.90;;;2.90;;
67965;SDS011;54749;47.850;9.002;2023-05-07T06:37:18;7.90;;;3.70;;
67965;SDS011;54749;47.850;9.002;2023-05-07T06:39:59;5.57;;;3.33;;
67965;SDS011;54749;47.850;9.002;2023-05-07T06:42:28;7.13;;;3.92;;
67965;SDS011;54749;47.850;9.002;2023-05-07T06:44:58;7.30;;;3.70;;
67965;SDS011;54749;47.850;9.002;2023-05-07T06:47:29;9.43;;;4.00;;
67965;SDS011;54749;47.850;9.002;2023-05-07T06:49:56;6.50;;;3.23;;
67965;SDS011;54749;47.850;9.002;2023-05-07T06:52:26;5.90;;;3.60;;
67965;SDS011;54749;47.850;9.002;2023-05-07T06:54:54;6.25;;;3.55;;
67965;SDS011;54749;47.850;9.002;2023-05-07T06:57:24;6.55;;;3.13;;
67965;SDS011;54749;47.850;9.002;2023-05-07T06:59:51;7.95;;;3.85;;
67965;SDS011;54749;47.850;9.002;2023-05-07T07:02:19;5.30;;;3.03;;
67965;SDS011;54749;47.850;9.002;2023-05-07T07:04:48;5.13;;;3.17;;
67965;SDS011;54749;47.850;9.002;2023-05-07T07:07:16;6.00;;;3.10;;
67965;SDS011;54749;47.850;9.002;2023-05-07T07:09:45;6.00;;;3.00;;
67965;SDS011;54749;47.850;9.002;2023-05-07T07:12:15;4.75;;;2.90;;
67965;SDS011;54749;47.850;9.002;2023-05-07T07:14:42;4.87;;;2.80;;
67965;SDS011;54749;47.850;9.002;2023-05-07T07:17:09;5.07;;;2.92;;
67965;SDS011;54749;47.850;9.002;2023-05-07T07:19:36;5.53;;;2.80;;
67965;SDS011;54749;47.850;9.002;2023-05-07T07:22:04;5.85;;;2.88;;
67965;SDS011;54749;47.850;9.002;2023-05-07T07:24:32;4.85;;;2.92;;
67965;SDS011;54749;47.850;9.002;2023-05-07T07:27:03;5.97;;;2.60;;
67965;SDS011;54749;47.850;9.002;2023-05-07T07:29:32;7.10;;;3.05;;
67965;SDS011;54749;47.850;9.002;2023-05-07T07:31:59;5.57;;;2.80;;
67965;SDS011;54749;47.850;9.002;2023-05-07T07:34:27;5.68;;;3.30;;
67965;SDS011;54749;47.850;9.002;2023-05-07T07:36:54;4.50;;;2.92;;
67965;SDS011;54749;47.850;9.002;2023-05-07T07:39:23;4.43;;;2.67;;
67965;SDS011;54749;47.850;9.002;2023-05-07T07:41:53;5.47;;;3.00;;
67965;SDS011;54749;47.850;9.002;2023-05-07T07:44:21;8.25;;;5.32;;
67965;SDS011;54749;47.850;9.002;2023-05-07T07:46:52;7.20;;;4.80;;
67965;SDS011;54749;47.850;9.002;2023-05-07T07:49:21;9.95;;;7.07;;
67965;SDS011;54749;47.850;9.002;2023-05-07T07:51:49;10.33;;;6.10;;
67965;SDS011;54749;47.850;9.002;2023-05-07T07:54:16;10.13;;;7.07;;
67965;SDS011;54749;47.850;9.002;2023-05-07T07:56:44;11.32;;;8.55;;
67965;SDS011;54749;47.850;9.002;2023-05-07T07:59:12;11.15;;;9.27;;
67965;SDS011;54749;47.850;9.002;2023-05-07T08:01:45;13.23;;;8.93;;
67965;SDS011;54749;47.850;9.002;2023-05-07T08:04:12;14.40;;;11.53;;
67965;SDS011;54749;47.850;9.002;2023-05-07T08:06:41;15.13;;;10.55;;
67965;SDS011;54749;47.850;9.002;2023-05-07T08:09:09;16.15;;;12.77;;
67965;SDS011;54749;47.850;9.002;2023-05-07T08:11:39;13.50;;;10.30;;
67965;SDS011;54749;47.850;9.002;2023-05-07T08:14:06;11.38;;;8.70;;
67965;SDS011;54749;47.850;9.002;2023-05-07T08:16:33;12.73;;;8.73;;
67965;SDS011;54749;47.850;9.002;2023-05-07T08:19:01;11.32;;;8.70;;
67965;SDS011;54749;47.850;9.002;2023-05-07T08:21:28;10.35;;;7.40;;
67965;SDS011;54749;47.850;9.002;2023-05-07T08:23:58;12.50;;;8.88;;
67965;SDS011;54749;47.850;9.002;2023-05-07T08:26:25;15.05;;;10.82;;
67965;SDS011;54749;47.850;9.002;2023-05-07T08:28:52;17.37;;;13.30;;
67965;SDS011;54749;47.850;9.002;2023-05-07T08:31:19;20.58;;;14.77;;
67965;SDS011;54749;47.850;9.002;2023-05-07T08:33:46;15.60;;;11.50;;
67965;SDS011;54749;47.850;9.002;2023-05-07T08:36:14;14.77;;;9.48;;
67965;SDS011;54749;47.850;9.002;2023-05-07T08:38:41;14.95;;;10.63;;
67965;SDS011;54749;47.850;9.002;2023-05-07T08:41:10;10.17;;;7.10;;
67965;SDS011;54749;47.850;9.002;2023-05-07T08:43:39;11.95;;;7.78;;
67965;SDS011;54749;47.850;9.002;2023-05-07T08:46:09;10.35;;;6.30;;
67965;SDS011;54749;47.850;9.002;2023-05-07T08:48:41;10.45;;;8.02;;
67965;SDS011;54749;47.850;9.002;2023-05-07T08:51:13;10.63;;;7.03;;
67965;SDS011;54749;47.850;9.002;2023-05-07T08:53:42;7.70;;;5.40;;
67965;SDS011;54749;47.850;9.002;2023-05-07T08:56:14;10.90;;;7.38;;
67965;SDS011;54749;47.850;9.002;2023-05-07T08:58:42;11.57;;;7.35;;
67965;SDS011;54749;47.850;9.002;2023-05-07T09:01:14;8.85;;;6.47;;
67965;SDS011;54749;47.850;9.002;2023-05-07T09:03:46;7.78;;;4.50;;
67965;SDS011;54749;47.850;9.002;2023-05-07T09:06:15;8.30;;;5.37;;
67965;SDS011;54749;47.850;9.002;2023-05-07T09:08:48;8.05;;;4.82;;
67965;SDS011;54749;47.850;9.002;2023-05-07T09:11:21;8.00;;;5.70;;
67965;SDS011;54749;47.850;9.002;2023-05-07T09:13:54;7.60;;;4.68;;
67965;SDS011;54749;47.850;9.002;2023-05-07T09:16:31;5.93;;;4.03;;
67965;SDS011;54749;47.850;9.002;2023-05-07T09:18:59;6.63;;;3.80;;
67965;SDS011;54749;47.850;9.002;2023-05-07T09:21:28;8.80;;;4.90;;
67965;SDS011;54749;47.850;9.002;2023-05-07T09:23:57;6.85;;;3.72;;
67965;SDS011;54749;47.850;9.002;2023-05-07T09:26:32;8.02;;;5.32;;
67965;SDS011;54749;47.850;9.002;2023-05-07T09:29:03;7.65;;;4.50;;
67965;SDS011;54749;47.850;9.002;2023-05-07T09:31:30;6.57;;;3.60;;
67965;SDS011;54749;47.850;9.002;2023-05-07T09:33:58;6.05;;;3.88;;
67965;SDS011;54749;47.850;9.002;2023-05-07T09:36:28;6.43;;;3.63;;
67965;SDS011;54749;47.850;9.002;2023-05-07T09:38:56;4.90;;;3.15;;
67965;SDS011;54749;47.850;9.002;2023-05-07T09:41:27;6.75;;;3.13;;
67965;SDS011;54749;47.850;9.002;2023-05-07T09:44:09;6.40;;;3.20;;
67965;SDS011;54749;47.850;9.002;2023-05-07T09:46:42;6.05;;;2.90;;
67965;SDS011;54749;47.850;9.002;2023-05-07T09:49:22;5.78;;;3.42;;
67965;SDS011;54749;47.850;9.002;2023-05-07T09:52:00;4.75;;;2.80;;
67965;SDS011;54749;47.850;9.002;2023-05-07T09:54:32;5.07;;;2.53;;
67965;SDS011;54749;47.850;9.002;2023-05-07T09:57:02;4.63;;;2.60;;
67965;SDS011;54749;47.850;9.002;2023-05-07T09:59:31;5.65;;;3.15;;
67965;SDS011;54749;47.850;9.002;2023-05-07T10:02:03;5.50;;;3.25;;
67965;SDS011;54749;47.850;9.002;2023-05-07T10:04:37;5.85;;;2.75;;
67965;SDS011;54749;47.850;9.002;2023-05-07T10:07:04;5.32;;;2.85;;
67965;SDS011;54749;47.850;9.002;2023-05-07T10:09:34;5.53;;;2.90;;
67965;SDS011;54749;47.850;9.002;2023-05-07T10:12:08;6.03;;;3.05;;
67965;SDS011;54749;47.850;9.002;2023-05-07T10:14:36;4.93;;;3.08;;
67965;SDS011;54749;47.850;9.002;2023-05-07T10:17:04;5.60;;;3.55;;
67965;SDS011;54749;47.850;9.002;2023-05-07T10:19:32;5.20;;;2.92;;
67965;SDS011;54749;47.850;9.002;2023-05-07T10:22:02;7.23;;;2.90;;
67965;SDS011;54749;47.850;9.002;2023-05-07T10:24:36;8.05;;;3.20;;
67965;SDS011;54749;47.850;9.002;2023-05-07T10:27:10;6.22;;;3.55;;
67965;SDS011;54749;47.850;9.002;2023-05-07T10:32:19;5.20;;;2.80;;
67965;SDS011;54749;47.850;9.002;2023-05-07T10:34:54;5.37;;;3.37;;
67965;SDS011;54749;47.850;9.002;2023-05-07T10:37:23;6.20;;;3.47;;
67965;SDS011;54749;47.850;9.002;2023-05-07T10:39:51;5.55;;;3.15;;
67965;SDS011;54749;47.850;9.002;2023-05-07T10:42:19;5.90;;;3.33;;
67965;SDS011;54749;47.850;9.002;2023-05-07T10:44:51;5.80;;;2.90;;
67965;SDS011;54749;47.850;9.002;2023-05-07T10:47:24;6.40;;;3.20;;
67965;SDS011;54749;47.850;9.002;2023-05-07T10:52:27;4.30;;;2.38;;
67965;SDS011;54749;47.850;9.002;2023-05-07T10:58:23;7.00;;;3.60;;
67965;SDS011;54749;47.850;9.002;2023-05-07T11:01:05;6.50;;;2.20;;
67965;SDS011;54749;47.850;9.002;2023-05-07T11:06:40;5.03;;;2.50;;
67965;SDS011;54749;47.850;9.002;2023-05-07T11:09:13;5.70;;;2.35;;
67965;SDS011;54749;47.850;9.002;2023-05-07T11:11:52;5.85;;;2.63;;
67965;SDS011;54749;47.850;9.002;2023-05-07T11:17:29;4.53;;;2.65;;
67965;SDS011;54749;47.850;9.002;2023-05-07T11:20:06;5.28;;;2.70;;
67965;SDS011;54749;47.850;9.002;2023-05-07T11:22:47;5.57;;;2.60;;
67965;SDS011;54749;47.850;9.002;2023-05-07T11:25:35;4.80;;;2.70;;
67965;SDS011;54749;47.850;9.002;2023-05-07T11:28:17;5.30;;;3.00;;
67965;SDS011;54749;47.850;9.002;2023-05-07T11:30:56;5.97;;;2.60;;
67965;SDS011;54749;47.850;9.002;2023-05-07T11:33:24;5.00;;;2.70;;
67965;SDS011;54749;47.850;9.002;2023-05-07T11:35:55;5.28;;;2.65;;
67965;SDS011;54749;47.850;9.002;2023-05-07T11:38:30;4.60;;;2.70;;
67965;SDS011;54749;47.850;9.002;2023-05-07T11:41:01;5.80;;;3.00;;
67965;SDS011;54749;47.850;9.002;2023-05-07T11:43:29;6.57;;;2.92;;
67965;SDS011;54749;47.850;9.002;2023-05-07T11:46:04;4.95;;;2.60;;
67965;SDS011;54749;47.850;9.002;2023-05-07T11:48:33;4.30;;;2.22;;
67965;SDS011;54749;47.850;9.002;2023-05-07T11:51:01;5.60;;;2.58;;
67965;SDS011;54749;47.850;9.002;2023-05-07T11:53:37;4.83;;;2.67;;
67965;SDS011;54749;47.850;9.002;2023-05-07T11:56:09;6.40;;;3.00;;
67965;SDS011;54749;47.850;9.002;2023-05-07T11:58:38;6.72;;;2.70;;
67965;SDS011;54749;47.850;9.002;2023-05-07T12:01:06;6.95;;;3.25;;
67965;SDS011;54749;47.850;9.002;2023-05-07T12:03:36;6.50;;;3.60;;
67965;SDS011;54749;47.850;9.002;2023-05-07T12:06:09;5.13;;;2.70;;
67965;SDS011;54749;47.850;9.002;2023-05-07T12:08:38;5.80;;;2.85;;
67965;SDS011;54749;47.850;9.002;2023-05-07T12:11:07;5.65;;;3.05;;
67965;SDS011;54749;47.850;9.002;2023-05-07T12:13:36;5.63;;;2.33;;
67965;SDS011;54749;47.850;9.002;2023-05-07T12:16:04;6.07;;;2.50;;
67965;SDS011;54749;47.850;9.002;2023-05-07T12:18:33;7.20;;;3.20;;
67965;SDS011;54749;47.850;9.002;2023-05-07T12:21:02;7.22;;;3.88;;
67965;SDS011;54749;47.850;9.002;2023-05-07T12:23:31;5.43;;;2.80;;
67965;SDS011;54749;47.850;9.002;2023-05-07T12:25:59;6.35;;;2.40;;
67965;SDS011;54749;47.850;9.002;2023-05-07T12:28:27;5.35;;;2.90;;
67965;SDS011;54749;47.850;9.002;2023-05-07T12:30:54;6.73;;;3.00;;
67965;SDS011;54749;47.850;9.002;2023-05-07T12:33:25;5.15;;;2.80;;
67965;SDS011;54749;47.850;9.002;2023-05-07T12:35:55;5.45;;;3.10;;
67965;SDS011;54749;47.850;9.002;2023-05-07T12:38:23;5.32;;;2.70;;
67965;SDS011;54749;47.850;9.002;2023-05-07T12:40:53;5.30;;;2.90;;
67965;SDS011;54749;47.850;9.002;2023-05-07T12:43:21;6.93;;;2.60;;
67965;SDS011;54749;47.850;9.002;2023-05-07T12:45:57;4.22;;;2.45;;
67965;SDS011;54749;47.850;9.002;2023-05-07T12:48:28;7.85;;;3.08;;
67965;SDS011;54749;47.850;9.002;2023-05-07T12:50:56;6.00;;;2.80;;
67965;SDS011;54749;47.850;9.002;2023-05-07T12:53:25;5.32;;;2.80;;
67965;SDS011;54749;47.850;9.002;2023-05-07T12:55:55;6.47;;;3.40;;
67965;SDS011;54749;47.850;9.002;2023-05-07T12:58:57;5.85;;;3.17;;
67965;SDS011;54749;47.850;9.002;2023-05-07T13:01:16;8.30;;;3.50;;
67965;SDS011;54749;47.850;9.002;2023-05-07T13:03:47;5.45;;;3.08;;
67965;SDS011;54749;47.850;9.002;2023-05-07T13:06:17;7.28;;;3.40;;
67965;SDS011;54749;47.850;9.002;2023-05-07T13:08:44;7.83;;;3.37;;
67965;SDS011;54749;47.850;9.002;2023-05-07T13:11:11;6.25;;;2.95;;
67965;SDS011;54749;47.850;9.002;2023-05-07T13:13:40;5.70;;;2.97;;
67965;SDS011;54749;47.850;9.002;2023-05-07T13:16:08;6.18;;;2.80;;
67965;SDS011;54749;47.850;9.002;2023-05-07T13:18:38;5.03;;;2.15;;
67965;SDS011;54749;47.850;9.002;2023-05-07T13:21:07;4.73;;;1.90;;
67965;SDS011;54749;47.850;9.002;2023-05-07T13:23:34;6.30;;;2.50;;
67965;SDS011;54749;47.850;9.002;2023-05-07T13:26:01;9.93;;;2.53;;
67965;SDS011;54749;47.850;9.002;2023-05-07T13:28:37;6.32;;;2.60;;
67965;SDS011;54749;47.850;9.002;2023-05-07T13:31:04;6.65;;;2.33;;
67965;SDS011;54749;47.850;9.002;2023-05-07T13:33:31;7.57;;;2.40;;
67965;SDS011;54749;47.850;9.002;2023-05-07T13:35:59;7.70;;;2.35;;
67965;SDS011;54749;47.850;9.002;2023-05-07T13:38:27;5.97;;;2.50;;
67965;SDS011;54749;47.850;9.002;2023-05-07T13:40:54;6.53;;;2.50;;
67965;SDS011;54749;47.850;9.002;2023-05-07T13:43:21;5.68;;;2.63;;
67965;SDS011;54749;47.850;9.002;2023-05-07T13:45:49;4.47;;;2.10;;
67965;SDS011;54749;47.850;9.002;2023-05-07T13:48:16;5.30;;;2.03;;
67965;SDS011;54749;47.850;9.002;2023-05-07T13:50:43;4.38;;;1.80;;
67965;SDS011;54749;47.850;9.002;2023-05-07T13:53:11;5.85;;;1.90;;
67965;SDS011;54749;47.850;9.002;2023-05-07T13:55:39;4.07;;;1.80;;
67965;SDS011;54749;47.850;9.002;2023-05-07T13:58:06;3.93;;;1.60;;
67965;SDS011;54749;47.850;9.002;2023-05-07T14:00:33;5.72;;;1.77;;
67965;SDS011;54749;47.850;9.002;2023-05-07T14:03:01;4.32;;;1.63;;
67965;SDS011;54749;47.850;9.002;2023-05-07T14:05:29;5.30;;;1.75;;
67965;SDS011;54749;47.850;9.002;2023-05-07T14:07:59;4.63;;;1.90;;
67965;SDS011;54749;47.850;9.002;2023-05-07T14:10:27;5.20;;;1.70;;
67965;SDS011;54749;47.850;9.002;2023-05-07T14:12:54;4.97;;;1.58;;
67965;SDS011;54749;47.850;9.002;2023-05-07T14:15:22;4.20;;;1.70;;
67965;SDS011;54749;47.850;9.002;2023-05-07T14:17:49;4.90;;;1.77;;
67965;SDS011;54749;47.850;9.002;2023-05-07T14:20:16;4.00;;;1.83;;
67965;SDS011;54749;47.850;9.002;2023-05-07T14:22:43;4.23;;;2.00;;
67965;SDS011;54749;47.850;9.002;2023-05-07T14:25:11;4.57;;;1.77;;
67965;SDS011;54749;47.850;9.002;2023-05-07T14:27:38;5.10;;;1.80;;
67965;SDS011;54749;47.850;9.002;2023-05-07T14:30:06;4.63;;;2.10;;
67965;SDS011;54749;47.850;9.002;2023-05-07T14:32:34;4.72;;;1.90;;
67965;SDS011;54749;47.850;9.002;2023-05-07T14:35:01;4.70;;;1.80;;
67965;SDS011;54749;47.850;9.002;2023-05-07T14:37:29;3.83;;;1.50;;
67965;SDS011;54749;47.850;9.002;2023-05-07T14:39:57;3.45;;;1.58;;
67965;SDS011;54749;47.850;9.002;2023-05-07T14:42:24;6.43;;;2.22;;
67965;SDS011;54749;47.850;9.002;2023-05-07T14:44:51;4.10;;;2.10;;
67965;SDS011;54749;47.850;9.002;2023-05-07T14:47:19;5.90;;;2.20;;
67965;SDS011;54749;47.850;9.002;2023-05-07T14:49:47;5.20;;;1.60;;
67965;SDS011;54749;47.850;9.002;2023-05-07T14:52:14;4.90;;;2.00;;
67965;SDS011;54749;47.850;9.002;2023-05-07T14:54:42;4.53;;;2.10;;
67965;SDS011;54749;47.850;9.002;2023-05-07T14:57:10;6.43;;;2.50;;
67965;SDS011;54749;47.850;9.002;2023-05-07T14:59:40;5.87;;;2.07;;
67965;SDS011;54749;47.850;9.002;2023-05-07T15:02:08;6.50;;;2.63;;
67965;SDS011;54749;47.850;9.002;2023-05-07T15:04:37;5.43;;;2.40;;
67965;SDS011;54749;47.850;9.002;2023-05-07T15:07:06;6.25;;;2.80;;
67965;SDS011;54749;47.850;9.002;2023-05-07T15:09:34;6.90;;;2.55;;
67965;SDS011;54749;47.850;9.002;2023-05-07T15:12:02;5.93;;;2.20;;